sensor_id;sensor_type;location;lat;lon;timestamp;P1;durP1;ratioP1;P2;durP2;ratioP2
54853;SDS011;40747;49.480;8.658;2022-11-15T00:01:29;3.97;;;2.00;;
54853;SDS011;40747;49.480;8.658;2022-11-15T00:03:55;2.28;;;1.40;;
54853;SDS011;40747;49.480;8.658;2022-11-15T00:06:20;6.93;;;2.15;;
54853;SDS011;40747;49.480;8.658;2022-11-15T00:08:45;2.28;;;1.35;;
54853;SDS011;40747;49.480;8.658;2022-11-15T00:11:11;3.22;;;1.38;;
54853;SDS011;40747;49.480;8.658;2022-11-15T00:13:37;2.47;;;1.65;;
54853;SDS011;40747;49.480;8.658;2022-11-15T00:16:02;5.68;;;1.80;;
54853;SDS011;40747;49.480;8.658;2022-11-15T00:18:29;4.00;;;1.88;;
54853;SDS011;40747;49.480;8.658;2022-11-15T00:20:55;4.10;;;1.55;;
54853;SDS011;40747;49.480;8.658;2022-11-15T00:23:27;2.45;;;1.38;;
54853;SDS011;40747;49.480;8.658;2022-11-15T00:25:56;2.40;;;1.50;;
54853;SDS011;40747;49.480;8.658;2022-11-15T00:28:22;3.40;;;1.70;;
54853;SDS011;40747;49.480;8.658;2022-11-15T00:30:47;4.28;;;1.85;;
54853;SDS011;40747;49.480;8.658;2022-11-15T00:33:13;3.65;;;1.92;;
54853;SDS011;40747;49.480;8.658;2022-11-15T00:35:38;2.08;;;1.50;;
54853;SDS011;40747;49.480;8.658;2022-11-15T00:38:03;4.25;;;1.92;;
54853;SDS011;40747;49.480;8.658;2022-11-15T00:40:29;4.30;;;1.30;;
54853;SDS011;40747;49.480;8.658;2022-11-15T00:42:54;2.17;;;1.48;;
54853;SDS011;40747;49.480;8.658;2022-11-15T00:45:20;2.25;;;1.42;;
54853;SDS011;40747;49.480;8.658;2022-11-15T00:47:46;2.75;;;1.60;;
54853;SDS011;40747;49.480;8.658;2022-11-15T00:50:11;3.47;;;2.03;;
54853;SDS011;40747;49.480;8.658;2022-11-15T00:52:37;2.75;;;1.52;;
54853;SDS011;40747;49.480;8.658;2022-11-15T00:55:02;4.03;;;1.38;;
54853;SDS011;40747;49.480;8.658;2022-11-15T00:57:28;2.17;;;1.35;;
54853;SDS011;40747;49.480;8.658;2022-11-15T00:59:53;1.83;;;1.50;;
54853;SDS011;40747;49.480;8.658;2022-11-15T01:02:18;2.00;;;1.27;;
54853;SDS011;40747;49.480;8.658;2022-11-15T01:04:43;5.07;;;1.45;;
54853;SDS011;40747;49.480;8.658;2022-11-15T01:07:09;5.90;;;1.65;;
54853;SDS011;40747;49.480;8.658;2022-11-15T01:09:34;3.65;;;1.60;;
54853;SDS011;40747;49.480;8.658;2022-11-15T01:11:59;1.58;;;1.20;;
54853;SDS011;40747;49.480;8.658;2022-11-15T01:14:25;4.30;;;2.63;;
54853;SDS011;40747;49.480;8.658;2022-11-15T01:16:50;2.83;;;1.67;;
54853;SDS011;40747;49.480;8.658;2022-11-15T01:19:15;1.92;;;1.20;;
54853;SDS011;40747;49.480;8.658;2022-11-15T01:21:41;7.15;;;1.67;;
54853;SDS011;40747;49.480;8.658;2022-11-15T01:24:07;5.93;;;1.85;;
54853;SDS011;40747;49.480;8.658;2022-11-15T01:26:36;2.28;;;1.25;;
54853;SDS011;40747;49.480;8.658;2022-11-15T01:29:01;2.40;;;1.50;;
54853;SDS011;40747;49.480;8.658;2022-11-15T01:31:27;1.90;;;1.33;;
54853;SDS011;40747;49.480;8.658;2022-11-15T01:33:52;2.17;;;1.50;;
54853;SDS011;40747;49.480;8.658;2022-11-15T01:36:18;3.80;;;1.73;;
54853;SDS011;40747;49.480;8.658;2022-11-15T01:38:55;2.83;;;1.60;;
54853;SDS011;40747;49.480;8.658;2022-11-15T01:41:32;3.97;;;2.47;;
54853;SDS011;40747;49.480;8.658;2022-11-15T01:44:30;3.80;;;1.13;;
54853;SDS011;40747;49.480;8.658;2022-11-15T01:47:02;4.10;;;1.58;;
54853;SDS011;40747;49.480;8.658;2022-11-15T01:49:32;2.35;;;1.70;;
54853;SDS011;40747;49.480;8.658;2022-11-15T01:52:00;2.00;;;1.63;;
54853;SDS011;40747;49.480;8.658;2022-11-15T01:54:28;3.60;;;1.77;;
54853;SDS011;40747;49.480;8.658;2022-11-15T01:56:56;2.85;;;1.80;;
54853;SDS011;40747;49.480;8.658;2022-11-15T01:59:26;2.22;;;1.35;;
54853;SDS011;40747;49.480;8.658;2022-11-15T02:01:51;1.75;;;1.27;;
54853;SDS011;40747;49.480;8.658;2022-11-15T02:04:22;2.78;;;1.85;;
54853;SDS011;40747;49.480;8.658;2022-11-15T02:06:51;2.15;;;1.75;;
54853;SDS011;40747;49.480;8.658;2022-11-15T02:09:16;6.30;;;1.83;;
54853;SDS011;40747;49.480;8.658;2022-11-15T02:11:42;3.28;;;1.65;;
54853;SDS011;40747;49.480;8.658;2022-11-15T02:14:09;4.60;;;1.98;;
54853;SDS011;40747;49.480;8.658;2022-11-15T02:27:21;3.25;;;2.00;;
54853;SDS011;40747;49.480;8.658;2022-11-15T02:32:48;4.75;;;1.65;;
54853;SDS011;40747;49.480;8.658;2022-11-15T02:35:22;8.65;;;1.80;;
54853;SDS011;40747;49.480;8.658;2022-11-15T02:40:38;2.40;;;1.85;;
54853;SDS011;40747;49.480;8.658;2022-11-15T02:43:12;1.88;;;1.52;;
54853;SDS011;40747;49.480;8.658;2022-11-15T02:46:04;2.03;;;1.25;;
54853;SDS011;40747;49.480;8.658;2022-11-15T02:48:38;4.05;;;1.60;;
54853;SDS011;40747;49.480;8.658;2022-11-15T02:51:04;1.65;;;1.10;;
54853;SDS011;40747;49.480;8.658;2022-11-15T02:53:29;2.13;;;1.45;;
54853;SDS011;40747;49.480;8.658;2022-11-15T02:55:55;2.60;;;1.40;;
54853;SDS011;40747;49.480;8.658;2022-11-15T03:00:58;4.33;;;1.50;;
54853;SDS011;40747;49.480;8.658;2022-11-15T03:09:01;1.63;;;1.30;;
54853;SDS011;40747;49.480;8.658;2022-11-15T03:11:35;2.53;;;1.00;;
54853;SDS011;40747;49.480;8.658;2022-11-15T03:14:49;1.13;;;0.98;;
54853;SDS011;40747;49.480;8.658;2022-11-15T03:17:05;9.30;;;1.70;;
54853;SDS011;40747;49.480;8.658;2022-11-15T03:19:47;2.25;;;1.60;;
54853;SDS011;40747;49.480;8.658;2022-11-15T03:22:16;2.58;;;1.30;;
54853;SDS011;40747;49.480;8.658;2022-11-15T03:24:45;5.47;;;1.55;;
54853;SDS011;40747;49.480;8.658;2022-11-15T03:27:15;4.88;;;1.42;;
54853;SDS011;40747;49.480;8.658;2022-11-15T03:29:47;2.53;;;1.35;;
54853;SDS011;40747;49.480;8.658;2022-11-15T03:32:19;2.28;;;1.50;;
54853;SDS011;40747;49.480;8.658;2022-11-15T03:34:47;3.10;;;1.65;;
54853;SDS011;40747;49.480;8.658;2022-11-15T03:37:17;1.70;;;1.48;;
54853;SDS011;40747;49.480;8.658;2022-11-15T03:39:47;3.60;;;1.67;;
54853;SDS011;40747;49.480;8.658;2022-11-15T03:42:30;3.28;;;1.45;;
54853;SDS011;40747;49.480;8.658;2022-11-15T03:45:02;4.55;;;1.88;;
54853;SDS011;40747;49.480;8.658;2022-11-15T03:47:41;1.75;;;1.35;;
54853;SDS011;40747;49.480;8.658;2022-11-15T03:50:10;3.22;;;1.42;;
54853;SDS011;40747;49.480;8.658;2022-11-15T03:52:38;3.17;;;1.63;;
54853;SDS011;40747;49.480;8.658;2022-11-15T03:55:06;3.80;;;1.60;;
54853;SDS011;40747;49.480;8.658;2022-11-15T03:57:34;1.55;;;1.13;;
54853;SDS011;40747;49.480;8.658;2022-11-15T03:59:59;1.70;;;1.40;;
54853;SDS011;40747;49.480;8.658;2022-11-15T04:02:24;1.63;;;1.40;;
54853;SDS011;40747;49.480;8.658;2022-11-15T04:04:50;1.70;;;1.38;;
54853;SDS011;40747;49.480;8.658;2022-11-15T04:07:15;6.20;;;1.88;;
54853;SDS011;40747;49.480;8.658;2022-11-15T04:09:40;2.65;;;1.30;;
54853;SDS011;40747;49.480;8.658;2022-11-15T04:12:24;2.40;;;1.50;;
54853;SDS011;40747;49.480;8.658;2022-11-15T04:15:06;1.42;;;1.17;;
54853;SDS011;40747;49.480;8.658;2022-11-15T04:17:34;2.17;;;1.42;;
54853;SDS011;40747;49.480;8.658;2022-11-15T04:20:00;4.45;;;1.70;;
54853;SDS011;40747;49.480;8.658;2022-11-15T04:22:45;1.58;;;1.20;;
54853;SDS011;40747;49.480;8.658;2022-11-15T04:25:29;2.00;;;1.30;;
54853;SDS011;40747;49.480;8.658;2022-11-15T04:27:54;1.20;;;1.02;;
54853;SDS011;40747;49.480;8.658;2022-11-15T04:30:19;4.80;;;1.45;;
54853;SDS011;40747;49.480;8.658;2022-11-15T04:32:45;2.25;;;1.52;;
54853;SDS011;40747;49.480;8.658;2022-11-15T04:35:11;1.90;;;1.33;;
54853;SDS011;40747;49.480;8.658;2022-11-15T04:37:36;1.38;;;1.02;;
54853;SDS011;40747;49.480;8.658;2022-11-15T04:40:02;1.75;;;1.13;;
54853;SDS011;40747;49.480;8.658;2022-11-15T04:42:27;1.92;;;0.90;;
54853;SDS011;40747;49.480;8.658;2022-11-15T04:44:52;2.95;;;1.67;;
54853;SDS011;40747;49.480;8.658;2022-11-15T04:47:17;1.88;;;1.42;;
54853;SDS011;40747;49.480;8.658;2022-11-15T04:49:43;6.53;;;1.40;;
54853;SDS011;40747;49.480;8.658;2022-11-15T04:52:09;1.90;;;1.67;;
54853;SDS011;40747;49.480;8.658;2022-11-15T04:54:34;1.58;;;1.15;;
54853;SDS011;40747;49.480;8.658;2022-11-15T04:56:59;1.70;;;1.38;;
54853;SDS011;40747;49.480;8.658;2022-11-15T04:59:25;3.15;;;1.67;;
54853;SDS011;40747;49.480;8.658;2022-11-15T05:01:50;2.03;;;1.00;;
54853;SDS011;40747;49.480;8.658;2022-11-15T05:04:15;4.85;;;1.65;;
54853;SDS011;40747;49.480;8.658;2022-11-15T05:06:43;4.00;;;1.63;;
54853;SDS011;40747;49.480;8.658;2022-11-15T05:09:09;2.25;;;1.30;;
54853;SDS011;40747;49.480;8.658;2022-11-15T05:11:34;2.33;;;1.77;;
54853;SDS011;40747;49.480;8.658;2022-11-15T05:14:00;1.58;;;1.20;;
54853;SDS011;40747;49.480;8.658;2022-11-15T05:16:25;5.22;;;2.10;;
54853;SDS011;40747;49.480;8.658;2022-11-15T05:18:53;2.28;;;1.63;;
54853;SDS011;40747;49.480;8.658;2022-11-15T05:21:19;2.70;;;1.98;;
54853;SDS011;40747;49.480;8.658;2022-11-15T05:23:45;6.38;;;3.13;;
54853;SDS011;40747;49.480;8.658;2022-11-15T05:26:10;7.25;;;4.40;;
54853;SDS011;40747;49.480;8.658;2022-11-15T05:28:36;5.97;;;2.35;;
54853;SDS011;40747;49.480;8.658;2022-11-15T05:31:06;4.82;;;1.95;;
54853;SDS011;40747;49.480;8.658;2022-11-15T05:33:40;4.22;;;2.17;;
54853;SDS011;40747;49.480;8.658;2022-11-15T05:38:46;8.90;;;2.53;;
54853;SDS011;40747;49.480;8.658;2022-11-15T05:41:13;4.50;;;2.55;;
54853;SDS011;40747;49.480;8.658;2022-11-15T05:43:40;4.43;;;2.15;;
54853;SDS011;40747;49.480;8.658;2022-11-15T05:46:07;4.05;;;3.38;;
54853;SDS011;40747;49.480;8.658;2022-11-15T05:48:34;6.00;;;3.25;;
54853;SDS011;40747;49.480;8.658;2022-11-15T05:51:00;8.18;;;3.13;;
54853;SDS011;40747;49.480;8.658;2022-11-15T05:53:29;8.27;;;3.55;;
54853;SDS011;40747;49.480;8.658;2022-11-15T05:55:55;4.03;;;2.95;;
54853;SDS011;40747;49.480;8.658;2022-11-15T05:58:20;4.50;;;2.92;;
54853;SDS011;40747;49.480;8.658;2022-11-15T06:00:46;7.18;;;3.03;;
54853;SDS011;40747;49.480;8.658;2022-11-15T06:03:11;5.60;;;3.28;;
54853;SDS011;40747;49.480;8.658;2022-11-15T06:05:39;5.93;;;2.80;;
54853;SDS011;40747;49.480;8.658;2022-11-15T06:08:04;4.78;;;2.75;;
54853;SDS011;40747;49.480;8.658;2022-11-15T06:10:29;6.65;;;2.22;;
54853;SDS011;40747;49.480;8.658;2022-11-15T06:13:02;7.22;;;2.00;;
54853;SDS011;40747;49.480;8.658;2022-11-15T06:15:28;3.90;;;2.13;;
54853;SDS011;40747;49.480;8.658;2022-11-15T06:17:57;3.67;;;2.00;;
54853;SDS011;40747;49.480;8.658;2022-11-15T06:20:23;3.42;;;2.13;;
54853;SDS011;40747;49.480;8.658;2022-11-15T06:22:49;5.20;;;2.05;;
54853;SDS011;40747;49.480;8.658;2022-11-15T06:25:14;3.25;;;2.17;;
54853;SDS011;40747;49.480;8.658;2022-11-15T06:27:40;3.05;;;2.03;;
54853;SDS011;40747;49.480;8.658;2022-11-15T06:30:05;2.05;;;1.67;;
54853;SDS011;40747;49.480;8.658;2022-11-15T06:32:31;5.22;;;1.85;;
54853;SDS011;40747;49.480;8.658;2022-11-15T06:34:56;3.38;;;2.13;;
54853;SDS011;40747;49.480;8.658;2022-11-15T06:37:21;2.60;;;1.92;;
54853;SDS011;40747;49.480;8.658;2022-11-15T06:39:46;2.70;;;1.95;;
54853;SDS011;40747;49.480;8.658;2022-11-15T06:42:12;3.65;;;2.05;;
54853;SDS011;40747;49.480;8.658;2022-11-15T06:44:37;3.53;;;2.58;;
54853;SDS011;40747;49.480;8.658;2022-11-15T06:47:02;3.92;;;2.95;;
54853;SDS011;40747;49.480;8.658;2022-11-15T06:49:28;3.30;;;2.30;;
54853;SDS011;40747;49.480;8.658;2022-11-15T06:51:53;5.63;;;2.80;;
54853;SDS011;40747;49.480;8.658;2022-11-15T06:54:18;3.22;;;2.28;;
54853;SDS011;40747;49.480;8.658;2022-11-15T06:56:45;3.25;;;2.45;;
54853;SDS011;40747;49.480;8.658;2022-11-15T06:59:10;4.57;;;2.65;;
54853;SDS011;40747;49.480;8.658;2022-11-15T07:01:36;3.10;;;2.47;;
54853;SDS011;40747;49.480;8.658;2022-11-15T07:04:01;7.20;;;2.88;;
54853;SDS011;40747;49.480;8.658;2022-11-15T07:06:26;4.15;;;2.90;;
54853;SDS011;40747;49.480;8.658;2022-11-15T07:08:52;3.67;;;3.13;;
54853;SDS011;40747;49.480;8.658;2022-11-15T07:11:17;3.05;;;2.67;;
54853;SDS011;40747;49.480;8.658;2022-11-15T07:13:42;5.90;;;3.00;;
54853;SDS011;40747;49.480;8.658;2022-11-15T07:16:08;4.40;;;2.45;;
54853;SDS011;40747;49.480;8.658;2022-11-15T07:18:35;9.40;;;3.20;;
54853;SDS011;40747;49.480;8.658;2022-11-15T07:21:06;5.95;;;2.70;;
54853;SDS011;40747;49.480;8.658;2022-11-15T07:23:36;4.00;;;2.20;;
54853;SDS011;40747;49.480;8.658;2022-11-15T07:26:05;5.07;;;2.65;;
54853;SDS011;40747;49.480;8.658;2022-11-15T07:28:31;3.83;;;2.72;;
54853;SDS011;40747;49.480;8.658;2022-11-15T07:30:56;4.18;;;2.13;;
54853;SDS011;40747;49.480;8.658;2022-11-15T07:33:21;3.00;;;2.13;;
54853;SDS011;40747;49.480;8.658;2022-11-15T07:35:47;5.15;;;2.97;;
54853;SDS011;40747;49.480;8.658;2022-11-15T07:38:15;4.03;;;2.58;;
54853;SDS011;40747;49.480;8.658;2022-11-15T07:40:44;2.75;;;1.83;;
54853;SDS011;40747;49.480;8.658;2022-11-15T07:43:10;2.97;;;2.08;;
54853;SDS011;40747;49.480;8.658;2022-11-15T07:45:39;5.57;;;1.77;;
54853;SDS011;40747;49.480;8.658;2022-11-15T07:48:06;2.55;;;1.73;;
54853;SDS011;40747;49.480;8.658;2022-11-15T07:50:31;6.07;;;2.65;;
54853;SDS011;40747;49.480;8.658;2022-11-15T07:52:57;4.90;;;2.13;;
54853;SDS011;40747;49.480;8.658;2022-11-15T07:55:24;6.40;;;2.38;;
54853;SDS011;40747;49.480;8.658;2022-11-15T07:57:51;2.08;;;1.40;;
54853;SDS011;40747;49.480;8.658;2022-11-15T08:00:17;2.53;;;1.67;;
54853;SDS011;40747;49.480;8.658;2022-11-15T08:02:42;2.95;;;1.48;;
54853;SDS011;40747;49.480;8.658;2022-11-15T08:05:08;3.38;;;1.60;;
54853;SDS011;40747;49.480;8.658;2022-11-15T08:07:33;2.13;;;1.52;;
54853;SDS011;40747;49.480;8.658;2022-11-15T08:09:59;2.35;;;1.65;;
54853;SDS011;40747;49.480;8.658;2022-11-15T08:12:26;1.85;;;1.30;;
54853;SDS011;40747;49.480;8.658;2022-11-15T08:14:53;2.08;;;1.35;;
54853;SDS011;40747;49.480;8.658;2022-11-15T08:17:19;1.67;;;1.33;;
54853;SDS011;40747;49.480;8.658;2022-11-15T08:19:44;2.78;;;1.52;;
54853;SDS011;40747;49.480;8.658;2022-11-15T08:22:09;1.95;;;1.08;;
54853;SDS011;40747;49.480;8.658;2022-11-15T08:24:34;3.08;;;1.40;;
54853;SDS011;40747;49.480;8.658;2022-11-15T08:27:00;1.85;;;1.20;;
54853;SDS011;40747;49.480;8.658;2022-11-15T08:29:25;2.17;;;1.10;;
54853;SDS011;40747;49.480;8.658;2022-11-15T08:31:51;2.08;;;1.17;;
54853;SDS011;40747;49.480;8.658;2022-11-15T08:34:19;1.33;;;1.00;;
54853;SDS011;40747;49.480;8.658;2022-11-15T08:36:44;4.32;;;1.27;;
54853;SDS011;40747;49.480;8.658;2022-11-15T08:39:10;2.78;;;1.42;;
54853;SDS011;40747;49.480;8.658;2022-11-15T08:41:37;3.08;;;1.60;;
54853;SDS011;40747;49.480;8.658;2022-11-15T08:44:03;2.42;;;1.48;;
54853;SDS011;40747;49.480;8.658;2022-11-15T08:46:29;3.53;;;1.30;;
54853;SDS011;40747;49.480;8.658;2022-11-15T08:48:54;0.98;;;0.90;;
54853;SDS011;40747;49.480;8.658;2022-11-15T08:51:19;2.58;;;1.48;;
54853;SDS011;40747;49.480;8.658;2022-11-15T08:53:45;1.67;;;0.95;;
54853;SDS011;40747;49.480;8.658;2022-11-15T08:56:11;2.78;;;1.50;;
54853;SDS011;40747;49.480;8.658;2022-11-15T08:58:38;1.50;;;1.15;;
54853;SDS011;40747;49.480;8.658;2022-11-15T09:01:03;2.75;;;1.48;;
54853;SDS011;40747;49.480;8.658;2022-11-15T09:03:30;2.22;;;1.38;;
54853;SDS011;40747;49.480;8.658;2022-11-15T09:05:59;2.08;;;1.30;;
54853;SDS011;40747;49.480;8.658;2022-11-15T09:08:25;1.33;;;1.20;;
54853;SDS011;40747;49.480;8.658;2022-11-15T09:10:54;3.60;;;1.58;;
54853;SDS011;40747;49.480;8.658;2022-11-15T09:13:19;4.75;;;1.73;;
54853;SDS011;40747;49.480;8.658;2022-11-15T09:15:45;3.92;;;1.45;;
54853;SDS011;40747;49.480;8.658;2022-11-15T09:18:10;2.28;;;1.55;;
54853;SDS011;40747;49.480;8.658;2022-11-15T09:20:35;2.55;;;1.27;;
54853;SDS011;40747;49.480;8.658;2022-11-15T09:23:01;2.08;;;1.30;;
54853;SDS011;40747;49.480;8.658;2022-11-15T09:25:27;1.15;;;0.85;;
54853;SDS011;40747;49.480;8.658;2022-11-15T09:27:53;0.80;;;0.80;;
54853;SDS011;40747;49.480;8.658;2022-11-15T09:30:18;3.35;;;1.50;;
54853;SDS011;40747;49.480;8.658;2022-11-15T09:32:44;3.53;;;1.70;;
54853;SDS011;40747;49.480;8.658;2022-11-15T09:35:09;1.50;;;0.98;;
54853;SDS011;40747;49.480;8.658;2022-11-15T09:37:34;1.63;;;0.90;;
54853;SDS011;40747;49.480;8.658;2022-11-15T09:40:00;1.70;;;1.00;;
54853;SDS011;40747;49.480;8.658;2022-11-15T09:42:36;3.03;;;1.40;;
54853;SDS011;40747;49.480;8.658;2022-11-15T09:45:18;2.33;;;1.20;;
54853;SDS011;40747;49.480;8.658;2022-11-15T09:50:38;1.52;;;1.20;;
54853;SDS011;40747;49.480;8.658;2022-11-15T09:53:14;4.72;;;1.65;;
54853;SDS011;40747;49.480;8.658;2022-11-15T09:55:59;1.08;;;0.98;;
54853;SDS011;40747;49.480;8.658;2022-11-15T10:00:55;3.08;;;1.55;;
54853;SDS011;40747;49.480;8.658;2022-11-15T10:03:28;2.10;;;1.35;;
54853;SDS011;40747;49.480;8.658;2022-11-15T10:06:00;1.42;;;1.20;;
54853;SDS011;40747;49.480;8.658;2022-11-15T10:11:27;1.92;;;1.40;;
54853;SDS011;40747;49.480;8.658;2022-11-15T10:13:59;1.40;;;0.93;;
54853;SDS011;40747;49.480;8.658;2022-11-15T10:22:14;1.83;;;1.27;;
54853;SDS011;40747;49.480;8.658;2022-11-15T10:24:46;1.70;;;1.15;;
54853;SDS011;40747;49.480;8.658;2022-11-15T10:27:16;4.35;;;1.35;;
54853;SDS011;40747;49.480;8.658;2022-11-15T10:29:44;2.35;;;1.23;;
54853;SDS011;40747;49.480;8.658;2022-11-15T10:32:11;1.83;;;1.10;;
54853;SDS011;40747;49.480;8.658;2022-11-15T10:34:37;2.47;;;1.30;;
54853;SDS011;40747;49.480;8.658;2022-11-15T10:37:03;2.38;;;1.60;;
54853;SDS011;40747;49.480;8.658;2022-11-15T10:39:28;2.25;;;1.45;;
54853;SDS011;40747;49.480;8.658;2022-11-15T10:41:54;5.65;;;1.70;;
54853;SDS011;40747;49.480;8.658;2022-11-15T10:49:25;1.75;;;1.25;;
54853;SDS011;40747;49.480;8.658;2022-11-15T10:52:15;4.15;;;1.75;;
54853;SDS011;40747;49.480;8.658;2022-11-15T10:54:45;2.30;;;1.55;;
54853;SDS011;40747;49.480;8.658;2022-11-15T10:57:14;5.32;;;1.70;;
54853;SDS011;40747;49.480;8.658;2022-11-15T10:59:44;2.10;;;1.38;;
54853;SDS011;40747;49.480;8.658;2022-11-15T11:05:03;8.23;;;1.77;;
54853;SDS011;40747;49.480;8.658;2022-11-15T11:07:31;2.22;;;1.20;;
54853;SDS011;40747;49.480;8.658;2022-11-15T11:10:13;6.15;;;1.88;;
54853;SDS011;40747;49.480;8.658;2022-11-15T11:12:44;3.35;;;1.55;;
54853;SDS011;40747;49.480;8.658;2022-11-15T11:15:11;5.80;;;1.15;;
54853;SDS011;40747;49.480;8.658;2022-11-15T11:20:41;3.15;;;1.45;;
54853;SDS011;40747;49.480;8.658;2022-11-15T11:23:57;6.97;;;0.93;;
54853;SDS011;40747;49.480;8.658;2022-11-15T11:42:42;2.22;;;1.30;;
54853;SDS011;40747;49.480;8.658;2022-11-15T11:45:26;2.13;;;1.10;;
54853;SDS011;40747;49.480;8.658;2022-11-15T11:48:12;1.85;;;1.27;;
54853;SDS011;40747;49.480;8.658;2022-11-15T11:50:40;2.17;;;1.10;;
54853;SDS011;40747;49.480;8.658;2022-11-15T11:53:21;1.98;;;1.02;;
54853;SDS011;40747;49.480;8.658;2022-11-15T11:55:58;2.83;;;1.52;;
54853;SDS011;40747;49.480;8.658;2022-11-15T11:58:39;2.17;;;1.10;;
54853;SDS011;40747;49.480;8.658;2022-11-15T12:03:39;3.07;;;1.10;;
54853;SDS011;40747;49.480;8.658;2022-11-15T12:06:27;1.83;;;1.10;;
54853;SDS011;40747;49.480;8.658;2022-11-15T12:09:19;1.83;;;1.17;;
54853;SDS011;40747;49.480;8.658;2022-11-15T12:14:34;2.25;;;0.98;;
54853;SDS011;40747;49.480;8.658;2022-11-15T12:17:01;1.83;;;1.17;;
54853;SDS011;40747;49.480;8.658;2022-11-15T12:19:26;2.60;;;0.88;;
54853;SDS011;40747;49.480;8.658;2022-11-15T12:24:26;2.30;;;0.90;;
54853;SDS011;40747;49.480;8.658;2022-11-15T12:26:53;1.63;;;1.02;;
54853;SDS011;40747;49.480;8.658;2022-11-15T12:29:30;1.27;;;0.73;;
54853;SDS011;40747;49.480;8.658;2022-11-15T12:32:00;1.80;;;1.15;;
54853;SDS011;40747;49.480;8.658;2022-11-15T12:34:29;4.85;;;1.25;;
54853;SDS011;40747;49.480;8.658;2022-11-15T12:37:02;1.83;;;1.10;;
54853;SDS011;40747;49.480;8.658;2022-11-15T12:42:56;2.58;;;1.20;;
54853;SDS011;40747;49.480;8.658;2022-11-15T12:45:27;2.20;;;1.15;;
54853;SDS011;40747;49.480;8.658;2022-11-15T12:56:34;2.45;;;1.33;;
54853;SDS011;40747;49.480;8.658;2022-11-15T13:01:08;2.88;;;1.52;;
54853;SDS011;40747;49.480;8.658;2022-11-15T13:03:34;3.35;;;1.40;;
54853;SDS011;40747;49.480;8.658;2022-11-15T13:06:01;3.72;;;1.25;;
54853;SDS011;40747;49.480;8.658;2022-11-15T13:08:39;2.72;;;1.50;;
54853;SDS011;40747;49.480;8.658;2022-11-15T13:14:34;4.60;;;1.75;;
54853;SDS011;40747;49.480;8.658;2022-11-15T13:19:48;4.80;;;1.20;;
54853;SDS011;40747;49.480;8.658;2022-11-15T13:22:25;1.77;;;0.95;;
54853;SDS011;40747;49.480;8.658;2022-11-15T13:33:23;5.18;;;1.77;;
54853;SDS011;40747;49.480;8.658;2022-11-15T13:35:51;5.75;;;1.70;;
54853;SDS011;40747;49.480;8.658;2022-11-15T13:38:25;2.70;;;1.63;;
54853;SDS011;40747;49.480;8.658;2022-11-15T13:40:54;1.60;;;1.10;;
54853;SDS011;40747;49.480;8.658;2022-11-15T13:46:03;2.97;;;1.77;;
54853;SDS011;40747;49.480;8.658;2022-11-15T13:48:36;2.20;;;1.35;;
54853;SDS011;40747;49.480;8.658;2022-11-15T13:51:03;2.58;;;0.90;;
54853;SDS011;40747;49.480;8.658;2022-11-15T13:53:32;6.22;;;1.58;;
54853;SDS011;40747;49.480;8.658;2022-11-15T13:56:00;1.85;;;1.30;;
54853;SDS011;40747;49.480;8.658;2022-11-15T13:58:28;2.03;;;1.10;;
54853;SDS011;40747;49.480;8.658;2022-11-15T14:01:01;3.60;;;1.27;;
54853;SDS011;40747;49.480;8.658;2022-11-15T14:03:37;2.20;;;1.00;;
54853;SDS011;40747;49.480;8.658;2022-11-15T14:08:41;2.80;;;1.27;;
54853;SDS011;40747;49.480;8.658;2022-11-15T14:11:22;2.55;;;0.80;;
54853;SDS011;40747;49.480;8.658;2022-11-15T14:16:35;4.22;;;1.65;;
54853;SDS011;40747;49.480;8.658;2022-11-15T14:19:06;4.63;;;1.70;;
54853;SDS011;40747;49.480;8.658;2022-11-15T14:21:34;2.63;;;1.45;;
54853;SDS011;40747;49.480;8.658;2022-11-15T14:24:20;2.08;;;1.30;;
54853;SDS011;40747;49.480;8.658;2022-11-15T14:26:46;2.35;;;1.67;;
54853;SDS011;40747;49.480;8.658;2022-11-15T14:29:24;2.75;;;1.52;;
54853;SDS011;40747;49.480;8.658;2022-11-15T14:31:51;5.07;;;1.60;;
54853;SDS011;40747;49.480;8.658;2022-11-15T14:34:18;1.80;;;1.05;;
54853;SDS011;40747;49.480;8.658;2022-11-15T14:36:43;1.77;;;1.00;;
54853;SDS011;40747;49.480;8.658;2022-11-15T14:39:08;2.10;;;0.73;;
54853;SDS011;40747;49.480;8.658;2022-11-15T14:41:34;2.05;;;0.95;;
54853;SDS011;40747;49.480;8.658;2022-11-15T14:44:04;2.70;;;0.80;;
54853;SDS011;40747;49.480;8.658;2022-11-15T14:46:30;1.77;;;1.00;;
54853;SDS011;40747;49.480;8.658;2022-11-15T14:48:56;1.25;;;0.70;;
54853;SDS011;40747;49.480;8.658;2022-11-15T14:51:21;2.88;;;0.90;;
54853;SDS011;40747;49.480;8.658;2022-11-15T14:53:46;1.27;;;0.85;;
54853;SDS011;40747;49.480;8.658;2022-11-15T14:56:13;3.60;;;0.93;;
54853;SDS011;40747;49.480;8.658;2022-11-15T14:58:39;1.27;;;0.70;;
54853;SDS011;40747;49.480;8.658;2022-11-15T15:01:18;0.98;;;0.70;;
54853;SDS011;40747;49.480;8.658;2022-11-15T15:03:45;1.60;;;0.90;;
54853;SDS011;40747;49.480;8.658;2022-11-15T15:06:11;1.88;;;0.90;;
54853;SDS011;40747;49.480;8.658;2022-11-15T15:08:40;1.20;;;0.90;;
54853;SDS011;40747;49.480;8.658;2022-11-15T15:11:25;2.13;;;0.70;;
54853;SDS011;40747;49.480;8.658;2022-11-15T15:13:53;0.98;;;0.75;;
54853;SDS011;40747;49.480;8.658;2022-11-15T15:16:21;2.13;;;1.15;;
54853;SDS011;40747;49.480;8.658;2022-11-15T15:18:47;5.50;;;1.40;;
54853;SDS011;40747;49.480;8.658;2022-11-15T15:21:31;2.00;;;1.00;;
54853;SDS011;40747;49.480;8.658;2022-11-15T15:23:56;2.85;;;1.55;;
54853;SDS011;40747;49.480;8.658;2022-11-15T15:26:22;1.75;;;0.90;;
54853;SDS011;40747;49.480;8.658;2022-11-15T15:28:48;6.25;;;1.20;;
54853;SDS011;40747;49.480;8.658;2022-11-15T15:31:15;2.38;;;0.80;;
54853;SDS011;40747;49.480;8.658;2022-11-15T15:33:41;3.88;;;1.08;;
54853;SDS011;40747;49.480;8.658;2022-11-15T15:36:13;2.03;;;1.05;;
54853;SDS011;40747;49.480;8.658;2022-11-15T15:38:41;1.20;;;0.88;;
54853;SDS011;40747;49.480;8.658;2022-11-15T15:41:10;2.35;;;0.90;;
54853;SDS011;40747;49.480;8.658;2022-11-15T15:43:36;1.70;;;0.85;;
54853;SDS011;40747;49.480;8.658;2022-11-15T15:46:02;2.28;;;0.80;;
54853;SDS011;40747;49.480;8.658;2022-11-15T15:48:28;2.50;;;1.13;;
54853;SDS011;40747;49.480;8.658;2022-11-15T15:50:53;1.08;;;0.85;;
54853;SDS011;40747;49.480;8.658;2022-11-15T15:53:18;4.30;;;0.90;;
54853;SDS011;40747;49.480;8.658;2022-11-15T15:55:44;1.52;;;1.05;;
54853;SDS011;40747;49.480;8.658;2022-11-15T15:58:09;1.63;;;0.95;;
54853;SDS011;40747;49.480;8.658;2022-11-15T16:00:35;2.30;;;0.90;;
54853;SDS011;40747;49.480;8.658;2022-11-15T16:03:01;1.95;;;1.02;;
54853;SDS011;40747;49.480;8.658;2022-11-15T16:05:26;2.70;;;1.27;;
54853;SDS011;40747;49.480;8.658;2022-11-15T16:07:51;3.75;;;1.10;;
54853;SDS011;40747;49.480;8.658;2022-11-15T16:12:45;3.55;;;1.85;;
54853;SDS011;40747;49.480;8.658;2022-11-15T16:15:10;1.70;;;1.05;;
54853;SDS011;40747;49.480;8.658;2022-11-15T16:17:45;2.28;;;1.45;;
54853;SDS011;40747;49.480;8.658;2022-11-15T16:20:19;1.25;;;0.80;;
54853;SDS011;40747;49.480;8.658;2022-11-15T16:23:03;2.47;;;1.40;;
54853;SDS011;40747;49.480;8.658;2022-11-15T16:25:31;3.72;;;1.17;;
54853;SDS011;40747;49.480;8.658;2022-11-15T16:27:59;3.20;;;1.20;;
54853;SDS011;40747;49.480;8.658;2022-11-15T16:30:24;2.72;;;1.38;;
54853;SDS011;40747;49.480;8.658;2022-11-15T16:32:50;3.15;;;1.60;;
54853;SDS011;40747;49.480;8.658;2022-11-15T16:35:16;2.88;;;1.73;;
54853;SDS011;40747;49.480;8.658;2022-11-15T16:37:42;9.13;;;1.55;;
54853;SDS011;40747;49.480;8.658;2022-11-15T16:40:17;5.45;;;1.50;;
54853;SDS011;40747;49.480;8.658;2022-11-15T16:42:45;3.47;;;1.15;;
54853;SDS011;40747;49.480;8.658;2022-11-15T16:45:11;2.30;;;1.13;;
54853;SDS011;40747;49.480;8.658;2022-11-15T16:47:38;2.00;;;1.25;;
54853;SDS011;40747;49.480;8.658;2022-11-15T16:50:04;2.63;;;1.60;;
54853;SDS011;40747;49.480;8.658;2022-11-15T16:52:29;4.32;;;1.38;;